createdAt,value
2023-01-19T00:04:32.405Z,5.70
2023-01-19T00:07:05.335Z,4.50
2023-01-19T00:09:38.544Z,5.10
2023-01-19T00:12:10.222Z,5.10
2023-01-19T00:14:41.400Z,4.30
2023-01-19T00:17:12.642Z,4.40
2023-01-19T00:19:43.604Z,3.40
2023-01-19T00:22:14.645Z,4.30
2023-01-19T00:24:46.254Z,3.60
2023-01-19T00:27:17.385Z,3.40
2023-01-19T00:32:20.425Z,3.80
2023-01-19T00:34:52.367Z,3.50
2023-01-19T00:37:23.368Z,3.00
2023-01-19T00:39:54.488Z,2.50
2023-01-19T00:42:45.471Z,2.60
2023-01-19T00:45:19.289Z,2.60
2023-01-19T00:47:54.839Z,2.60
2023-01-19T00:50:26.886Z,2.20
2023-01-19T00:53:01.484Z,2.70
2023-01-19T00:55:33.849Z,3.00
2023-01-19T00:58:04.931Z,2.70
2023-01-19T01:00:36.081Z,3.60
2023-01-19T01:03:07.489Z,2.90
2023-01-19T01:05:41.090Z,3.20
2023-01-19T01:08:12.060Z,3.80
2023-01-19T01:10:43.227Z,4.00
2023-01-19T01:13:20.604Z,5.20
2023-01-19T01:15:56.160Z,4.00
2023-01-19T01:18:27.976Z,4.40
2023-01-19T01:21:05.252Z,3.80
2023-01-19T01:23:36.855Z,4.20
2023-01-19T01:26:08.577Z,3.50
2023-01-19T01:28:39.649Z,4.00
2023-01-19T01:31:10.957Z,3.60
2023-01-19T01:33:42.001Z,4.20
2023-01-19T01:36:14.407Z,4.00
2023-01-19T01:38:45.282Z,3.40
2023-01-19T01:41:16.460Z,3.30
2023-01-19T01:43:54.949Z,3.80
2023-01-19T01:46:27.180Z,3.90
2023-01-19T01:49:04.277Z,3.80
2023-01-19T01:51:40.163Z,3.60
2023-01-19T01:54:17.739Z,3.10
2023-01-19T01:59:26.798Z,2.30
2023-01-19T02:02:18.791Z,3.20
2023-01-19T02:04:54.452Z,2.60
2023-01-19T02:07:50.972Z,2.40
2023-01-19T02:13:21.035Z,2.60
2023-01-19T02:15:54.358Z,2.30
2023-01-19T02:18:27.897Z,2.60
2023-01-19T02:21:09.281Z,3.70
2023-01-19T02:23:45.257Z,3.10
2023-01-19T02:26:19.721Z,2.30
2023-01-19T02:28:54.605Z,2.90
2023-01-19T02:31:26.564Z,3.60
2023-01-19T02:33:58.249Z,4.00
2023-01-19T02:36:33.317Z,3.40
2023-01-19T02:39:05.861Z,3.10
2023-01-19T02:41:40.844Z,3.80
2023-01-19T02:44:14.068Z,3.20
2023-01-19T02:46:45.149Z,3.20
2023-01-19T02:49:16.522Z,3.20
2023-01-19T02:51:47.684Z,4.30
2023-01-19T02:54:37.814Z,3.80
2023-01-19T02:57:25.543Z,3.20
2023-01-19T03:00:09.899Z,2.60
2023-01-19T03:02:55.941Z,2.90
2023-01-19T03:05:38.329Z,2.50
2023-01-19T03:08:17.405Z,3.10
2023-01-19T03:10:54.788Z,3.80
2023-01-19T03:13:34.140Z,3.30
2023-01-19T03:16:13.209Z,3.70
2023-01-19T03:18:48.075Z,3.40
2023-01-19T03:21:21.977Z,2.30
2023-01-19T03:23:55.473Z,2.70
2023-01-19T03:26:33.632Z,2.70
2023-01-19T03:29:08.022Z,3.20
2023-01-19T03:31:41.373Z,2.80
2023-01-19T03:34:16.271Z,2.80
2023-01-19T03:36:50.890Z,2.70
2023-01-19T03:39:24.651Z,2.30
2023-01-19T03:42:01.121Z,2.50
2023-01-19T03:44:34.411Z,3.00
2023-01-19T03:47:06.005Z,2.60
2023-01-19T03:49:38.950Z,2.70
2023-01-19T03:52:09.961Z,2.40
2023-01-19T03:54:41.711Z,2.50
2023-01-19T03:57:13.009Z,2.40
2023-01-19T03:59:44.114Z,3.10
2023-01-19T04:02:15.165Z,3.20
2023-01-19T04:04:46.494Z,2.80
2023-01-19T04:07:17.720Z,2.40
2023-01-19T04:09:49.065Z,2.90
2023-01-19T04:12:20.249Z,3.20
2023-01-19T04:14:51.301Z,3.00
2023-01-19T04:17:22.283Z,3.00
2023-01-19T04:19:53.493Z,3.70
2023-01-19T04:22:24.611Z,5.80
2023-01-19T04:24:55.790Z,5.00
2023-01-19T04:27:26.921Z,4.60
2023-01-19T04:29:57.884Z,4.20
2023-01-19T04:32:29.089Z,4.00
2023-01-19T04:35:00.234Z,3.80
2023-01-19T04:37:31.292Z,3.90
2023-01-19T04:40:02.224Z,3.90
2023-01-19T04:42:33.570Z,3.50
2023-01-19T04:45:04.622Z,3.80
2023-01-19T04:47:35.610Z,3.20
2023-01-19T04:50:08.477Z,2.70
2023-01-19T04:52:39.734Z,3.30
2023-01-19T04:55:12.650Z,2.70
2023-01-19T04:57:44.150Z,3.20
2023-01-19T05:02:45.461Z,2.40
2023-01-19T05:05:17.574Z,2.50
2023-01-19T05:07:49.154Z,2.80
2023-01-19T05:10:20.812Z,2.80
2023-01-19T05:15:21.404Z,3.00
2023-01-19T05:17:52.918Z,2.70
2023-01-19T05:20:23.967Z,2.30
2023-01-19T05:22:55.425Z,2.70
2023-01-19T05:25:26.423Z,2.70
2023-01-19T05:27:57.530Z,2.90
2023-01-19T05:30:28.513Z,2.30
2023-01-19T05:32:59.999Z,2.10
2023-01-19T05:35:36.001Z,2.30
2023-01-19T05:38:07.828Z,2.60
2023-01-19T05:40:38.948Z,2.30
2023-01-19T05:43:09.952Z,2.70
2023-01-19T05:45:41.232Z,2.40
2023-01-19T05:48:12.160Z,2.30
2023-01-19T05:50:43.091Z,2.60
2023-01-19T05:53:14.041Z,3.20
2023-01-19T05:55:45.047Z,5.50
2023-01-19T05:58:15.865Z,10.10
2023-01-19T06:00:47.212Z,5.60
2023-01-19T06:03:18.903Z,3.50
2023-01-19T06:05:49.896Z,4.40
2023-01-19T06:08:20.774Z,4.40
2023-01-19T06:10:51.787Z,3.40
2023-01-19T06:13:22.662Z,3.60
2023-01-19T06:15:59.417Z,3.40
2023-01-19T06:18:31.152Z,3.40
2023-01-19T06:21:05.964Z,3.70
2023-01-19T06:23:38.460Z,3.20
2023-01-19T06:26:10.085Z,3.30
2023-01-19T06:28:41.058Z,2.50
2023-01-19T06:31:12.120Z,2.60
2023-01-19T06:33:43.207Z,2.80
2023-01-19T06:36:14.297Z,3.20
2023-01-19T06:38:45.239Z,3.80
2023-01-19T06:41:16.308Z,4.70
2023-01-19T06:43:47.304Z,6.30
2023-01-19T06:46:18.432Z,5.40
2023-01-19T06:48:49.607Z,11.40
2023-01-19T06:51:20.749Z,7.70
2023-01-19T06:53:51.789Z,8.20
2023-01-19T06:56:22.720Z,23.30
2023-01-19T07:01:24.261Z,18.70
2023-01-19T07:03:55.510Z,18.50
2023-01-19T07:06:26.493Z,30.40
2023-01-19T07:08:58.824Z,16.30
2023-01-19T07:11:32.149Z,11.10
2023-01-19T07:14:04.168Z,10.40
2023-01-19T07:19:04.943Z,12.00
2023-01-19T07:21:36.093Z,14.40
2023-01-19T07:24:07.910Z,17.50
2023-01-19T07:26:39.073Z,24.10
2023-01-19T07:29:10.298Z,19.40
2023-01-19T07:31:41.310Z,19.90
2023-01-19T07:34:12.604Z,18.70
2023-01-19T07:36:44.180Z,17.40
2023-01-19T07:41:44.938Z,21.40
2023-01-19T07:44:16.261Z,23.40
2023-01-19T07:46:47.323Z,13.70
2023-01-19T07:49:18.352Z,15.90
2023-01-19T07:51:49.311Z,11.40
2023-01-19T07:54:20.839Z,10.50
2023-01-19T07:56:54.277Z,7.00
2023-01-19T07:59:25.673Z,32.90
2023-01-19T08:01:58.371Z,18.10
2023-01-19T08:04:30.041Z,11.00
2023-01-19T08:07:01.336Z,9.10
2023-01-19T08:09:32.666Z,11.50
2023-01-19T08:12:03.949Z,8.60
2023-01-19T08:14:35.278Z,9.60
2023-01-19T08:17:06.566Z,10.30
2023-01-19T08:22:07.244Z,8.40
2023-01-19T08:24:38.493Z,7.60
2023-01-19T08:27:11.285Z,6.30
2023-01-19T08:29:42.641Z,8.10
2023-01-19T08:32:13.746Z,6.40
2023-01-19T08:34:45.041Z,7.90
2023-01-19T08:37:15.998Z,6.50
2023-01-19T08:39:47.424Z,5.20
2023-01-19T08:42:18.560Z,4.70
2023-01-19T08:44:57.467Z,4.30
2023-01-19T08:47:29.310Z,4.50
2023-01-19T08:50:00.576Z,5.30
2023-01-19T08:52:31.609Z,4.80
2023-01-19T08:55:02.786Z,4.70
2023-01-19T08:57:33.715Z,3.70
2023-01-19T09:00:08.009Z,3.60
2023-01-19T09:02:39.103Z,3.30
2023-01-19T09:05:11.138Z,3.40
2023-01-19T09:07:42.001Z,3.60
2023-01-19T09:10:14.462Z,4.00
2023-01-19T09:12:46.526Z,4.10
2023-01-19T09:15:17.586Z,3.60
2023-01-19T09:17:52.879Z,3.10
2023-01-19T09:20:24.277Z,3.50
2023-01-19T09:22:56.342Z,3.40
2023-01-19T09:25:27.750Z,4.00
2023-01-19T09:28:00.493Z,3.60
2023-01-19T09:30:32.697Z,3.20
2023-01-19T09:33:08.531Z,3.40
2023-01-19T09:35:40.462Z,3.50
2023-01-19T09:38:12.871Z,4.00
2023-01-19T09:40:48.595Z,3.60
2023-01-19T09:43:32.973Z,2.90
2023-01-19T09:46:06.889Z,4.00
2023-01-19T09:48:46.464Z,3.60
2023-01-19T09:51:21.207Z,4.00
2023-01-19T09:54:01.523Z,3.70
2023-01-19T09:56:33.628Z,3.70
2023-01-19T09:59:16.321Z,3.50
2023-01-19T10:01:57.543Z,3.70
2023-01-19T10:04:35.744Z,3.70
2023-01-19T10:07:17.385Z,4.60
2023-01-19T10:10:13.537Z,5.50
2023-01-19T10:12:56.390Z,7.30
2023-01-19T10:15:38.192Z,4.70
2023-01-19T10:18:18.228Z,4.20
2023-01-19T10:20:54.691Z,3.50
2023-01-19T10:23:36.745Z,3.00
2023-01-19T10:26:14.668Z,3.10
2023-01-19T10:31:18.338Z,3.80
2023-01-19T10:33:50.028Z,4.20
2023-01-19T10:36:23.061Z,3.80
2023-01-19T10:38:54.069Z,3.00
2023-01-19T10:41:32.889Z,4.10
2023-01-19T10:44:05.697Z,3.70
2023-01-19T10:46:43.437Z,3.30
2023-01-19T10:49:43.826Z,4.00
2023-01-19T10:52:28.894Z,3.30
2023-01-19T10:55:00.534Z,3.00
2023-01-19T10:57:36.957Z,3.60
2023-01-19T11:00:28.775Z,3.90
2023-01-19T11:03:00.587Z,4.30
2023-01-19T11:05:34.342Z,5.30
2023-01-19T11:08:25.176Z,5.70
2023-01-19T11:11:02.490Z,5.50
2023-01-19T11:13:34.775Z,6.10
2023-01-19T11:16:15.843Z,6.40
2023-01-19T11:18:47.787Z,8.80
2023-01-19T11:21:25.748Z,4.90
2023-01-19T11:26:32.795Z,10.40
2023-01-19T11:29:06.049Z,8.10
2023-01-19T11:31:38.129Z,8.60
2023-01-19T11:34:27.066Z,15.10
2023-01-19T11:37:02.605Z,9.80
2023-01-19T11:39:46.041Z,11.20
2023-01-19T11:42:18.833Z,12.10
2023-01-19T11:44:56.772Z,6.70
2023-01-19T11:47:30.583Z,10.50
2023-01-19T11:50:07.017Z,13.80
2023-01-19T11:52:43.587Z,11.10
2023-01-19T11:55:23.970Z,9.80
2023-01-19T11:57:56.275Z,8.20
2023-01-19T12:00:31.237Z,7.30
2023-01-19T12:03:09.515Z,7.50
2023-01-19T12:05:48.099Z,15.20
2023-01-19T12:08:26.997Z,6.10
2023-01-19T12:11:00.609Z,8.10
2023-01-19T12:13:33.463Z,7.50
2023-01-19T12:16:10.396Z,7.50
2023-01-19T12:18:44.962Z,7.60
2023-01-19T12:21:16.185Z,7.50
2023-01-19T12:23:57.149Z,7.90
2023-01-19T12:26:34.750Z,7.70
2023-01-19T12:31:40.725Z,8.30
2023-01-19T12:34:41.014Z,7.30
2023-01-19T12:37:33.240Z,7.70
2023-01-19T12:40:18.581Z,5.80
2023-01-19T12:42:56.635Z,6.70
2023-01-19T12:45:33.299Z,6.70
2023-01-19T12:48:05.490Z,7.20
2023-01-19T12:50:39.023Z,6.50
2023-01-19T12:53:20.927Z,6.20
2023-01-19T12:56:01.410Z,9.10
2023-01-19T12:58:33.895Z,9.30
2023-01-19T13:01:21.191Z,8.10
2023-01-19T13:04:06.808Z,7.80
2023-01-19T13:07:13.715Z,9.20
2023-01-19T13:09:44.956Z,7.40
2023-01-19T13:12:26.655Z,7.30
2023-01-19T13:15:24.589Z,7.30
2023-01-19T13:17:56.431Z,4.60
2023-01-19T13:20:33.288Z,4.50
2023-01-19T13:23:21.724Z,7.30
2023-01-19T13:25:55.895Z,6.10
2023-01-19T13:28:34.955Z,5.00
2023-01-19T13:31:07.136Z,4.80
2023-01-19T13:33:51.935Z,4.80
2023-01-19T13:36:28.734Z,4.90
2023-01-19T13:39:02.070Z,3.90
2023-01-19T13:41:36.987Z,4.90
2023-01-19T13:44:14.928Z,8.30
2023-01-19T13:46:47.030Z,12.20
2023-01-19T13:49:22.243Z,12.00
2023-01-19T13:54:54.190Z,7.80
2023-01-19T13:57:28.164Z,7.20
2023-01-19T14:00:08.426Z,8.30
2023-01-19T14:02:39.471Z,6.80
2023-01-19T14:05:22.077Z,5.50
2023-01-19T14:08:02.617Z,7.00
2023-01-19T14:10:34.846Z,7.70
2023-01-19T14:13:08.021Z,5.20
2023-01-19T14:15:40.729Z,6.40
2023-01-19T14:18:22.229Z,9.20
2023-01-19T14:20:59.087Z,11.40
2023-01-19T14:23:45.326Z,12.10
2023-01-19T14:26:46.125Z,9.70
2023-01-19T14:29:28.947Z,6.30
2023-01-19T14:32:15.235Z,10.30
2023-01-19T14:34:48.451Z,12.90
2023-01-19T14:37:23.040Z,10.40
2023-01-19T14:39:57.324Z,8.00
2023-01-19T14:42:32.173Z,7.60
2023-01-19T14:45:05.096Z,13.50
2023-01-19T14:47:39.526Z,10.80
2023-01-19T14:50:21.868Z,8.30
2023-01-19T14:52:57.393Z,7.60
2023-01-19T14:55:35.012Z,7.90
2023-01-19T14:58:12.776Z,7.40
2023-01-19T15:00:44.137Z,8.80
2023-01-19T15:03:16.040Z,8.60
2023-01-19T15:05:48.688Z,8.60
2023-01-19T15:08:25.086Z,8.80
2023-01-19T15:10:57.096Z,7.60
2023-01-19T15:13:29.169Z,8.30
2023-01-19T15:16:00.376Z,8.00
2023-01-19T15:18:31.635Z,31.40
2023-01-19T15:21:03.769Z,42.60
2023-01-19T15:23:35.459Z,91.40
2023-01-19T15:26:07.799Z,21.60
2023-01-19T15:28:38.768Z,51.00
2023-01-19T15:31:14.626Z,20.60
2023-01-19T15:33:45.776Z,12.60
2023-01-19T15:36:19.074Z,8.90
2023-01-19T15:38:51.245Z,9.80
2023-01-19T15:41:27.029Z,9.10
2023-01-19T15:43:58.799Z,11.90
2023-01-19T15:46:30.080Z,13.10
2023-01-19T15:49:01.468Z,13.20
2023-01-19T15:51:32.482Z,14.30
2023-01-19T15:54:03.841Z,15.70
2023-01-19T15:56:34.915Z,18.80
2023-01-19T15:59:06.062Z,15.10
2023-01-19T16:01:37.011Z,13.70
2023-01-19T16:04:11.175Z,12.90
2023-01-19T16:06:42.377Z,15.40
2023-01-19T16:09:18.559Z,21.80
2023-01-19T16:11:49.729Z,26.80
2023-01-19T16:14:20.875Z,27.00
2023-01-19T16:16:52.596Z,24.60
2023-01-19T16:19:23.880Z,24.10
2023-01-19T16:21:54.885Z,19.20
2023-01-19T16:24:27.023Z,15.30
2023-01-19T16:26:58.116Z,18.50
2023-01-19T16:29:29.345Z,13.80
2023-01-19T16:32:00.682Z,11.80
2023-01-19T16:34:31.959Z,9.20
2023-01-19T16:37:02.873Z,8.30
2023-01-19T16:39:34.182Z,7.90
2023-01-19T16:42:05.519Z,7.40
2023-01-19T16:44:36.555Z,15.80
2023-01-19T16:47:07.570Z,14.70
2023-01-19T16:49:38.630Z,13.70
2023-01-19T16:52:09.622Z,13.80
2023-01-19T16:54:43.838Z,15.30
2023-01-19T16:57:15.151Z,14.10
2023-01-19T16:59:50.650Z,12.50
2023-01-19T17:02:22.000Z,15.60
2023-01-19T17:07:22.805Z,12.00
2023-01-19T17:09:54.106Z,14.70
2023-01-19T17:12:25.339Z,12.90
2023-01-19T17:14:56.557Z,16.70
2023-01-19T17:17:27.531Z,16.30
2023-01-19T17:20:00.246Z,16.10
2023-01-19T17:22:31.390Z,17.80
2023-01-19T17:25:02.251Z,22.30
2023-01-19T17:27:36.062Z,20.90
2023-01-19T17:30:26.801Z,21.00
2023-01-19T17:32:58.325Z,18.20
2023-01-19T17:35:29.385Z,22.10
2023-01-19T17:38:00.748Z,22.40
2023-01-19T17:40:32.336Z,22.70
2023-01-19T17:43:03.335Z,23.80
2023-01-19T17:45:35.338Z,20.40
2023-01-19T17:48:06.886Z,22.40
2023-01-19T17:50:37.808Z,25.80
2023-01-19T17:53:09.245Z,22.70
2023-01-19T17:55:40.329Z,20.40
2023-01-19T17:58:11.522Z,24.50
2023-01-19T18:00:42.722Z,24.30
2023-01-19T18:03:13.868Z,25.50
2023-01-19T18:05:55.699Z,26.20
2023-01-19T18:08:26.581Z,24.40
2023-01-19T18:10:59.304Z,27.90
2023-01-19T18:13:30.791Z,28.80
2023-01-19T18:16:07.006Z,27.00
2023-01-19T18:18:38.692Z,28.70
2023-01-19T18:26:11.865Z,32.40
2023-01-19T18:28:43.076Z,28.20
2023-01-19T18:31:16.345Z,26.30
2023-01-19T18:33:48.108Z,24.20
2023-01-19T18:38:50.178Z,20.10
2023-01-19T18:41:23.448Z,22.00
2023-01-19T18:43:58.299Z,21.40
2023-01-19T18:46:29.468Z,23.10
2023-01-19T18:49:00.473Z,25.90
2023-01-19T18:51:32.028Z,25.10
2023-01-19T18:54:03.301Z,24.60
2023-01-19T18:56:34.848Z,21.30
2023-01-19T18:59:06.299Z,24.30
2023-01-19T19:01:37.613Z,27.20
2023-01-19T19:04:09.284Z,30.50
2023-01-19T19:06:40.242Z,32.20
2023-01-19T19:09:11.759Z,28.00
2023-01-19T19:14:12.863Z,26.10
2023-01-19T19:16:43.946Z,25.40
2023-01-19T19:19:15.537Z,23.50
2023-01-19T19:24:16.549Z,22.40
2023-01-19T19:26:47.738Z,22.40
2023-01-19T19:29:18.685Z,21.50
2023-01-19T19:31:50.029Z,23.70
2023-01-19T19:34:21.133Z,25.10
2023-01-19T19:36:52.359Z,22.60
2023-01-19T19:39:23.164Z,26.30
2023-01-19T19:41:56.640Z,26.20
2023-01-19T19:44:27.781Z,26.40
2023-01-19T19:46:59.062Z,24.50
2023-01-19T19:49:30.169Z,26.50
2023-01-19T19:52:01.198Z,26.50
2023-01-19T19:54:32.456Z,28.50
2023-01-19T19:57:03.721Z,27.00
2023-01-19T19:59:34.681Z,24.90
2023-01-19T20:02:05.783Z,29.20
2023-01-19T20:04:36.881Z,27.40
2023-01-19T20:07:08.066Z,27.10
2023-01-19T20:09:40.386Z,27.00
2023-01-19T20:12:12.053Z,25.60
2023-01-19T20:14:43.081Z,29.00
2023-01-19T20:17:14.088Z,39.00
2023-01-19T20:19:46.600Z,29.60
2023-01-19T20:22:18.134Z,28.60
2023-01-19T20:24:51.476Z,38.90
2023-01-19T20:27:22.878Z,34.10
2023-01-19T20:32:29.188Z,22.10
2023-01-19T20:35:00.433Z,26.50
2023-01-19T20:37:31.511Z,29.90
2023-01-19T20:40:03.047Z,32.80
2023-01-19T20:42:34.220Z,32.60
2023-01-19T20:45:05.426Z,35.70
2023-01-19T20:47:36.410Z,30.30
2023-01-19T20:50:08.892Z,28.80
2023-01-19T20:52:39.943Z,27.30
2023-01-19T20:55:14.075Z,26.50
2023-01-19T20:57:45.540Z,27.60
2023-01-19T21:00:17.588Z,27.30
2023-01-19T21:02:49.309Z,24.90
2023-01-19T21:07:50.753Z,22.20
2023-01-19T21:10:23.119Z,27.40
2023-01-19T21:12:54.066Z,30.70
2023-01-19T21:15:25.475Z,28.10
2023-01-19T21:17:57.464Z,24.80
2023-01-19T21:20:29.813Z,27.70
2023-01-19T21:23:01.235Z,27.00
2023-01-19T21:25:32.265Z,25.90
2023-01-19T21:28:03.225Z,23.40
2023-01-19T21:30:37.006Z,23.70
2023-01-19T21:33:09.469Z,25.80
2023-01-19T21:35:41.264Z,24.30
2023-01-19T21:38:12.651Z,30.70
2023-01-19T21:40:44.108Z,35.70
2023-01-19T21:43:15.430Z,31.90
2023-01-19T21:45:47.635Z,35.10
2023-01-19T21:50:57.085Z,26.10
2023-01-19T21:53:28.283Z,24.50
2023-01-19T21:56:00.496Z,26.40
2023-01-19T21:58:31.435Z,24.70
2023-01-19T22:01:05.030Z,23.80
2023-01-19T22:03:36.179Z,22.90
2023-01-19T22:06:09.485Z,21.00
2023-01-19T22:08:41.203Z,21.20
2023-01-19T22:11:14.926Z,22.80
2023-01-19T22:13:46.101Z,22.70
2023-01-19T22:16:19.381Z,22.60
2023-01-19T22:18:54.213Z,22.30
2023-01-19T22:21:27.173Z,21.10
2023-01-19T22:24:00.472Z,21.50
2023-01-19T22:26:34.288Z,21.70
2023-01-19T22:29:11.125Z,18.90
2023-01-19T22:31:43.256Z,17.30
2023-01-19T22:34:16.167Z,21.80
2023-01-19T22:36:47.464Z,17.90
2023-01-19T22:39:18.837Z,21.20
2023-01-19T22:41:49.900Z,22.50
2023-01-19T22:44:22.486Z,20.30
2023-01-19T22:46:56.857Z,19.90
2023-01-19T22:49:27.981Z,19.40
2023-01-19T22:51:59.173Z,17.90
2023-01-19T22:54:30.715Z,18.80
2023-01-19T22:57:01.577Z,20.20
2023-01-19T22:59:32.636Z,17.60
2023-01-19T23:02:04.008Z,19.00
2023-01-19T23:07:04.534Z,16.00
2023-01-19T23:09:36.120Z,17.80
2023-01-19T23:12:08.024Z,18.60
2023-01-19T23:17:08.472Z,17.20
2023-01-19T23:19:39.619Z,16.80
2023-01-19T23:22:10.702Z,17.80
2023-01-19T23:24:41.888Z,17.80
2023-01-19T23:27:12.951Z,17.90
2023-01-19T23:29:44.182Z,16.30
2023-01-19T23:32:15.225Z,17.30
2023-01-19T23:34:46.230Z,17.50
2023-01-19T23:37:17.380Z,18.60
2023-01-19T23:39:48.902Z,18.80
2023-01-19T23:42:20.086Z,17.70
2023-01-19T23:44:50.949Z,17.60
2023-01-19T23:47:21.909Z,17.60
2023-01-19T23:49:53.076Z,16.80
2023-01-19T23:52:27.259Z,17.20
2023-01-19T23:54:58.567Z,16.80
2023-01-19T23:57:29.534Z,17.30
